Time;durP1;ratioP1;P1;durP2;ratioP2;P2;SDS_P1;SDS_P2;PMS_P1;PMS_P2;Temp;Humidity;BMP_temperature;BMP_pressure;BME280_temperature;BME280_humidity;BME280_pressure;Samples;Min_cycle;Max_cycle;Signal;HPM_P1;HPM_P2
2021/11/23 00:01:38;;;;;;;33.22;16.52;;;-0.40;99.90;;;;;;5011305;28;20401;-56
2021/11/23 00:04:04;;;;;;;30.13;14.93;;;-0.40;99.90;;;;;;5006666;28;20490;-56
2021/11/23 00:06:33;;;;;;;33.15;16.85;;;-0.50;99.90;;;;;;5008872;28;20399;-56
2021/11/23 00:08:59;;;;;;;32.45;15.45;;;-0.50;99.90;;;;;;5010454;28;20035;-59
2021/11/23 00:11:25;;;;;;;30.58;14.80;;;-0.60;99.90;;;;;;5020848;28;20030;-56
2021/11/23 00:13:50;;;;;;;26.60;14.40;;;-0.60;99.90;;;;;;5009010;28;20037;-57
2021/11/23 00:16:17;;;;;;;34.13;15.48;;;-0.60;99.90;;;;;;5001585;28;20099;-54
2021/11/23 00:18:43;;;;;;;26.17;14.43;;;-0.70;99.90;;;;;;5009520;28;20070;-57
2021/11/23 00:21:08;;;;;;;27.48;16.05;;;-0.70;99.90;;;;;;5011121;28;20066;-57
2021/11/23 00:23:34;;;;;;;31.30;14.10;;;-0.60;99.90;;;;;;5012440;28;20038;-54
2021/11/23 00:26:00;;;;;;;31.53;14.87;;;-0.70;99.90;;;;;;5005640;28;20054;-58
2021/11/23 00:28:26;;;;;;;26.83;14.17;;;-0.70;99.90;;;;;;5009582;28;20027;-56
2021/11/23 00:30:51;;;;;;;28.87;15.03;;;-0.80;99.90;;;;;;5014775;28;20384;-60
2021/11/23 00:33:17;;;;;;;28.83;14.67;;;-0.80;99.90;;;;;;5006419;28;20846;-57
2021/11/23 00:35:45;;;;;;;29.90;16.97;;;-0.80;99.90;;;;;;5006142;28;20100;-56
2021/11/23 00:38:10;;;;;;;32.03;16.97;;;-0.70;99.90;;;;;;5017157;28;20104;-59
2021/11/23 00:40:36;;;;;;;30.73;16.33;;;-0.70;99.90;;;;;;5014017;28;20029;-57
2021/11/23 00:43:05;;;;;;;28.93;16.03;;;-0.70;99.90;;;;;;5021676;28;20052;-57
2021/11/23 00:45:35;;;;;;;26.63;13.70;;;-0.70;99.90;;;;;;5015442;28;20089;-59
2021/11/23 00:48:01;;;;;;;30.30;14.43;;;-0.60;99.90;;;;;;5009767;28;20029;-60
2021/11/23 00:50:28;;;;;;;35.33;14.17;;;-0.60;99.90;;;;;;4999939;28;20492;-58
2021/11/23 00:52:53;;;;;;;26.83;15.00;;;-0.70;99.90;;;;;;5014122;28;20384;-57
2021/11/23 00:55:19;;;;;;;27.40;13.67;;;-0.70;99.90;;;;;;5014309;28;20086;-55
2021/11/23 00:57:46;;;;;;;32.93;16.77;;;-0.80;99.90;;;;;;5010104;28;20105;-56
2021/11/23 01:00:13;;;;;;;27.27;15.47;;;-0.80;99.90;;;;;;5018295;28;20036;-57
2021/11/23 01:02:38;;;;;;;30.47;15.63;;;-0.80;99.90;;;;;;5012702;28;20060;-58
2021/11/23 01:05:05;;;;;;;37.80;17.40;;;-0.90;99.90;;;;;;5010552;28;20018;-57
2021/11/23 01:07:31;;;;;;;33.43;16.53;;;-0.90;99.90;;;;;;5002138;28;20074;-56
2021/11/23 01:09:56;;;;;;;32.07;15.60;;;-0.90;99.90;;;;;;5009282;28;20034;-57
2021/11/23 01:12:23;;;;;;;34.43;17.87;;;-0.90;99.90;;;;;;5010868;28;20442;-57
2021/11/23 01:14:49;;;;;;;39.17;16.57;;;-0.80;99.90;;;;;;5013711;28;20033;-57
2021/11/23 01:17:15;;;;;;;38.80;17.60;;;-0.80;99.90;;;;;;5014152;28;20045;-58
2021/11/23 01:19:43;;;;;;;39.33;18.90;;;-0.70;99.90;;;;;;5008063;28;20438;-58
2021/11/23 01:22:08;;;;;;;31.97;17.20;;;-0.60;99.90;;;;;;5004082;28;20117;-59
2021/11/23 01:24:34;;;;;;;33.03;16.50;;;-0.60;99.90;;;;;;4999198;28;20125;-57
2021/11/23 01:26:59;;;;;;;32.90;16.23;;;-0.60;99.90;;;;;;5003233;28;20041;-58
2021/11/23 01:29:26;;;;;;;32.70;15.53;;;-0.60;99.90;;;;;;5004734;28;20135;-54
2021/11/23 01:31:51;;;;;;;28.27;14.53;;;-0.60;99.90;;;;;;5000829;28;20017;-58
2021/11/23 01:34:19;;;;;;;26.37;14.27;;;-0.70;99.90;;;;;;4995517;28;20023;-60
2021/11/23 01:36:46;;;;;;;21.53;12.40;;;-0.70;99.90;;;;;;5000201;28;20490;-59
2021/11/23 01:39:12;;;;;;;23.50;11.87;;;-0.80;99.90;;;;;;5004671;28;20065;-58
2021/11/23 01:41:38;;;;;;;20.77;10.93;;;-0.80;99.90;;;;;;4999640;28;20471;-60
2021/11/23 01:44:04;;;;;;;23.73;12.57;;;-0.90;99.90;;;;;;4997958;28;20026;-59
2021/11/23 01:46:29;;;;;;;25.10;12.77;;;-0.90;99.90;;;;;;5008080;28;20033;-59
2021/11/23 01:48:55;;;;;;;25.33;13.77;;;-1.00;99.90;;;;;;5003616;28;20025;-57
2021/11/23 01:51:21;;;;;;;31.03;14.93;;;-1.00;99.90;;;;;;4995900;28;20026;-57
2021/11/23 01:53:47;;;;;;;22.07;13.23;;;-1.00;99.90;;;;;;4997594;28;20192;-57
2021/11/23 01:56:13;;;;;;;25.60;13.57;;;-1.00;99.90;;;;;;4997724;28;20045;-57
2021/11/23 01:58:39;;;;;;;23.37;13.07;;;-1.10;99.90;;;;;;5004449;28;20033;-59
2021/11/23 02:01:08;;;;;;;25.63;13.90;;;-1.10;99.90;;;;;;5002121;28;20030;-56
2021/11/23 02:03:38;;;;;;;28.23;16.07;;;-1.10;99.90;;;;;;4990839;28;20631;-59
2021/11/23 02:06:05;;;;;;;28.63;15.07;;;-1.10;99.90;;;;;;5000633;28;20141;-56
2021/11/23 02:08:31;;;;;;;28.77;14.83;;;-1.10;99.90;;;;;;4998483;28;20026;-57
2021/11/23 02:10:57;;;;;;;30.83;15.47;;;-1.00;99.90;;;;;;5010855;28;20041;-54
2021/11/23 02:13:23;;;;;;;30.13;16.43;;;-1.00;99.90;;;;;;4992647;28;20041;-51
2021/11/23 02:15:49;;;;;;;38.87;16.73;;;-1.00;99.90;;;;;;5005621;28;20029;-57
2021/11/23 02:18:24;;;;;;;35.67;16.17;;;-1.00;99.90;;;;;;4996790;28;20034;-55
2021/11/23 02:20:50;;;;;;;40.77;18.43;;;-1.00;99.90;;;;;;5002443;28;20117;-58
2021/11/23 02:23:17;;;;;;;33.33;15.93;;;-0.90;99.90;;;;;;4997433;28;20022;-57
2021/11/23 02:25:43;;;;;;;31.93;16.13;;;-0.90;99.90;;;;;;4991297;28;20530;-56
2021/11/23 02:28:10;;;;;;;40.87;17.13;;;-0.90;99.90;;;;;;5002493;28;20054;-59
2021/11/23 02:30:41;;;;;;;34.58;18.13;;;-0.90;99.90;;;;;;5000088;28;20080;-56
2021/11/23 02:33:06;;;;;;;30.90;16.40;;;-0.80;99.90;;;;;;4999241;28;20034;-59
2021/11/23 02:35:33;;;;;;;38.25;18.48;;;-0.80;99.90;;;;;;5008780;28;20548;-56
2021/11/23 02:37:59;;;;;;;36.60;16.40;;;-0.80;99.90;;;;;;5005102;28;20049;-57
2021/11/23 02:40:25;;;;;;;34.17;15.30;;;-0.80;99.90;;;;;;5023330;28;20464;-56
2021/11/23 02:42:51;;;;;;;28.40;16.03;;;-0.80;99.90;;;;;;5006912;28;20395;-58
2021/11/23 02:45:19;;;;;;;30.17;14.90;;;-0.80;99.90;;;;;;5005411;28;20558;-60
2021/11/23 02:47:45;;;;;;;32.93;16.00;;;-0.80;99.90;;;;;;5011506;28;20033;-56
2021/11/23 02:50:14;;;;;;;31.03;15.77;;;-0.90;99.90;;;;;;5015589;28;20109;-56
2021/11/23 02:52:45;;;;;;;31.50;14.47;;;-0.90;99.90;;;;;;5013482;28;20022;-58
2021/11/23 02:55:11;;;;;;;24.03;13.60;;;-0.90;99.90;;;;;;5010279;28;20037;-57
2021/11/23 02:57:38;;;;;;;29.37;14.50;;;-1.00;99.90;;;;;;5024046;28;20039;-55
2021/11/23 03:00:10;;;;;;;26.70;14.30;;;-1.00;99.90;;;;;;5009310;28;20065;-57
2021/11/23 03:02:37;;;;;;;26.53;13.30;;;-1.00;99.90;;;;;;5011373;28;20022;-56
2021/11/23 03:05:04;;;;;;;29.43;15.10;;;-1.00;99.90;;;;;;5013611;28;20448;-57
2021/11/23 03:07:30;;;;;;;29.53;15.50;;;-1.10;99.90;;;;;;5004499;28;20100;-58
2021/11/23 03:09:56;;;;;;;32.50;15.00;;;-1.00;99.90;;;;;;5010330;28;20112;-57
2021/11/23 03:12:24;;;;;;;30.53;15.17;;;-1.10;99.90;;;;;;5009967;28;20034;-57
2021/11/23 03:14:50;;;;;;;25.10;14.57;;;-1.10;99.90;;;;;;5018623;28;20041;-57
2021/11/23 03:17:18;;;;;;;29.27;14.43;;;-1.10;99.90;;;;;;5015004;28;20042;-57
2021/11/23 03:19:45;;;;;;;28.03;15.23;;;-1.20;99.90;;;;;;5009514;28;20034;-57
2021/11/23 03:22:12;;;;;;;32.73;16.07;;;-1.10;99.90;;;;;;5017419;28;20029;-58
2021/11/23 03:24:38;;;;;;;34.03;16.40;;;-1.10;99.90;;;;;;5025143;28;20034;-56
2021/11/23 03:27:05;;;;;;;32.90;15.87;;;-1.10;99.90;;;;;;5007733;28;20040;-57
2021/11/23 03:29:31;;;;;;;32.63;15.87;;;-1.10;99.90;;;;;;5015593;28;20023;-55
2021/11/23 03:31:57;;;;;;;34.10;16.90;;;-1.20;99.90;;;;;;5013870;28;20389;-58
2021/11/23 03:34:23;;;;;;;37.57;17.27;;;-1.20;99.90;;;;;;5004572;28;20049;-56
2021/11/23 03:36:49;;;;;;;34.27;15.80;;;-1.20;99.90;;;;;;5007801;28;20037;-57
2021/11/23 03:39:14;;;;;;;34.10;15.70;;;-1.20;99.90;;;;;;5013778;28;20026;-57
2021/11/23 03:41:40;;;;;;;33.03;15.57;;;-1.30;99.90;;;;;;5015718;28;20410;-59
2021/11/23 03:44:06;;;;;;;28.70;14.77;;;-1.30;99.90;;;;;;5008940;28;20018;-57
2021/11/23 03:46:33;;;;;;;26.23;13.93;;;-1.30;99.90;;;;;;5001479;28;20038;-55
2021/11/23 03:48:59;;;;;;;28.07;14.07;;;-1.40;99.90;;;;;;5013890;28;20056;-53
2021/11/23 03:51:25;;;;;;;30.30;13.50;;;-1.40;99.90;;;;;;5020024;28;20068;-60
2021/11/23 03:53:51;;;;;;;25.90;14.10;;;-1.40;99.90;;;;;;5020567;28;20383;-60
2021/11/23 03:56:16;;;;;;;36.10;13.97;;;-1.50;99.90;;;;;;5005036;28;20025;-57
2021/11/23 03:58:43;;;;;;;32.07;14.30;;;-1.50;99.90;;;;;;5002878;28;20068;-54
2021/11/23 04:01:09;;;;;;;33.57;16.00;;;-1.50;99.90;;;;;;5000744;28;20038;-58
2021/11/23 04:03:35;;;;;;;27.83;14.70;;;-1.50;99.90;;;;;;5005487;28;20449;-58
2021/11/23 04:06:02;;;;;;;32.60;16.53;;;-1.50;99.90;;;;;;4999825;28;20034;-56
2021/11/23 04:08:28;;;;;;;35.07;16.20;;;-1.50;99.90;;;;;;5008023;28;20038;-53
2021/11/23 04:10:54;;;;;;;30.70;16.27;;;-1.50;99.90;;;;;;5005185;28;20026;-53
2021/11/23 04:13:20;;;;;;;31.00;14.93;;;-1.60;99.90;;;;;;5012479;28;20093;-56
2021/11/23 04:15:47;;;;;;;28.97;15.33;;;-1.60;99.90;;;;;;5003960;28;20125;-56
2021/11/23 04:18:13;;;;;;;31.27;15.63;;;-1.60;99.90;;;;;;5004810;28;20037;-58
2021/11/23 04:20:39;;;;;;;36.97;16.53;;;-1.50;99.90;;;;;;5005410;28;20033;-57
2021/11/23 04:23:05;;;;;;;33.87;15.67;;;-1.50;99.90;;;;;;5002368;28;20033;-59
2021/11/23 04:25:31;;;;;;;35.23;17.30;;;-1.50;99.90;;;;;;5007074;28;20110;-55
2021/11/23 04:27:57;;;;;;;36.03;15.77;;;-1.50;99.90;;;;;;5008992;28;20535;-57
2021/11/23 04:30:23;;;;;;;35.90;16.40;;;-1.50;99.90;;;;;;5003280;28;20033;-57
2021/11/23 04:32:49;;;;;;;29.77;16.13;;;-1.50;99.90;;;;;;5002805;28;20026;-56
2021/11/23 04:35:15;;;;;;;33.20;17.27;;;-1.50;99.90;;;;;;5000907;28;20654;-53
2021/11/23 04:37:42;;;;;;;49.70;18.90;;;-1.50;99.90;;;;;;5000143;28;20505;-57
2021/11/23 04:40:09;;;;;;;34.33;17.60;;;-1.40;99.90;;;;;;5004375;28;20526;-57
2021/11/23 04:42:35;;;;;;;37.17;18.53;;;-1.40;99.90;;;;;;5000571;28;20083;-51
2021/11/23 04:45:03;;;;;;;37.53;16.67;;;-1.40;99.90;;;;;;5007896;28;20027;-56
2021/11/23 04:47:28;;;;;;;31.70;17.43;;;-1.30;99.90;;;;;;5000035;28;20056;-58
2021/11/23 04:49:54;;;;;;;38.47;16.50;;;-1.30;99.90;;;;;;5007002;28;20502;-61
2021/11/23 04:52:20;;;;;;;34.50;16.73;;;-1.30;99.90;;;;;;5014032;28;20041;-55
2021/11/23 04:54:45;;;;;;;42.93;16.73;;;-1.30;99.90;;;;;;5018692;28;20037;-57
2021/11/23 04:57:11;;;;;;;39.33;17.80;;;-1.30;99.90;;;;;;5012343;28;20498;-57
2021/11/23 04:59:37;;;;;;;38.57;18.83;;;-1.30;99.90;;;;;;5011827;28;20415;-56
2021/11/23 05:02:03;;;;;;;32.77;16.60;;;-1.30;99.90;;;;;;5000991;28;20026;-57
2021/11/23 05:04:28;;;;;;;34.10;15.93;;;-1.30;99.90;;;;;;5001305;28;20042;-59
2021/11/23 05:06:54;;;;;;;32.27;16.13;;;-1.30;99.90;;;;;;5003470;28;20029;-59
2021/11/23 05:09:20;;;;;;;34.87;17.77;;;-1.30;99.90;;;;;;5001063;28;20041;-54
2021/11/23 05:11:48;;;;;;;42.30;18.33;;;-1.30;99.90;;;;;;5008101;28;20368;-58
2021/11/23 05:14:15;;;;;;;40.97;18.73;;;-1.30;99.90;;;;;;5018657;28;20029;-57
2021/11/23 05:16:41;;;;;;;35.03;18.20;;;-1.20;99.90;;;;;;5014600;28;20483;-57
2021/11/23 05:19:07;;;;;;;42.53;18.10;;;-1.20;99.90;;;;;;5003278;28;20042;-56
2021/11/23 05:21:33;;;;;;;34.40;17.40;;;-1.10;99.90;;;;;;5003527;28;20038;-58
2021/11/23 05:23:59;;;;;;;36.37;17.63;;;-1.00;99.90;;;;;;5001824;28;20037;-56
2021/11/23 05:26:24;;;;;;;41.03;16.80;;;-1.00;99.90;;;;;;5004704;28;20022;-58
2021/11/23 05:28:50;;;;;;;30.17;16.60;;;-0.90;99.90;;;;;;5008647;28;20022;-59
2021/11/23 05:31:16;;;;;;;35.50;15.90;;;-0.90;99.90;;;;;;4994774;28;20510;-57
2021/11/23 05:33:42;;;;;;;31.20;16.30;;;-0.90;99.90;;;;;;5003750;28;20064;-57
2021/11/23 05:36:07;;;;;;;29.63;15.20;;;-0.80;99.90;;;;;;4994850;28;20152;-58
2021/11/23 05:38:33;;;;;;;37.50;15.23;;;-0.80;99.90;;;;;;5000549;28;20029;-60
2021/11/23 05:40:59;;;;;;;30.33;15.20;;;-0.70;99.90;;;;;;4992329;28;20026;-58
2021/11/23 05:43:24;;;;;;;27.33;13.63;;;-0.70;99.90;;;;;;4997817;28;20030;-54
2021/11/23 05:45:50;;;;;;;28.38;13.60;;;-0.60;99.90;;;;;;5000101;28;20495;-58
2021/11/23 05:48:15;;;;;;;27.00;13.80;;;-0.60;99.90;;;;;;4998495;28;20072;-56
2021/11/23 05:50:41;;;;;;;24.98;13.27;;;-0.60;99.90;;;;;;5001937;28;20026;-58
2021/11/23 05:53:08;;;;;;;26.38;13.07;;;-0.50;99.90;;;;;;4996029;28;20441;-57
2021/11/23 05:55:34;;;;;;;24.60;13.52;;;-0.50;99.90;;;;;;5016340;28;20036;-55
2021/11/23 05:58:00;;;;;;;24.88;12.27;;;-0.40;99.90;;;;;;5006172;28;20038;-57
2021/11/23 06:00:26;;;;;;;23.33;12.27;;;-0.40;99.90;;;;;;5000589;28;20030;-57
2021/11/23 06:02:51;;;;;;;31.48;15.25;;;-0.40;99.90;;;;;;4994485;28;20125;-55
2021/11/23 06:05:17;;;;;;;28.13;14.07;;;-0.40;99.90;;;;;;4999212;28;20076;-58
2021/11/23 06:07:43;;;;;;;33.53;15.85;;;-0.40;99.90;;;;;;4995079;28;20026;-58
2021/11/23 06:10:09;;;;;;;29.85;14.45;;;-0.50;99.90;;;;;;5000606;28;20068;-59
2021/11/23 06:12:35;;;;;;;22.40;12.52;;;-0.50;99.90;;;;;;4999273;28;20084;-52
2021/11/23 06:15:01;;;;;;;23.48;14.02;;;-0.50;99.90;;;;;;4999313;28;20046;-55
2021/11/23 06:17:28;;;;;;;29.05;14.27;;;-0.50;99.90;;;;;;4996416;28;20489;-58
2021/11/23 06:19:54;;;;;;;25.30;13.63;;;-0.50;99.90;;;;;;5002195;28;20109;-59
2021/11/23 06:22:22;;;;;;;27.27;13.18;;;-0.60;99.90;;;;;;4996102;28;20065;-54
2021/11/23 06:24:48;;;;;;;26.52;13.88;;;-0.60;99.90;;;;;;5006576;28;20030;-55
2021/11/23 06:27:14;;;;;;;28.77;13.95;;;-0.60;99.90;;;;;;4997474;28;20038;-57
2021/11/23 06:29:39;;;;;;;24.77;13.68;;;-0.60;99.90;;;;;;5004053;28;20046;-57
2021/11/23 06:32:05;;;;;;;27.67;13.90;;;-0.50;99.90;;;;;;5002792;28;20050;-57
2021/11/23 06:34:31;;;;;;;26.02;14.35;;;-0.50;99.90;;;;;;5004477;28;20041;-58
2021/11/23 06:36:58;;;;;;;25.25;13.98;;;-0.40;99.90;;;;;;5002247;28;20030;-58
2021/11/23 06:39:24;;;;;;;25.80;13.27;;;-0.30;99.90;;;;;;5000105;28;20030;-59
2021/11/23 06:41:49;;;;;;;28.23;14.75;;;-0.30;99.90;;;;;;5000180;28;20036;-59
2021/11/23 06:44:15;;;;;;;24.38;13.50;;;-0.20;99.90;;;;;;4994384;28;20495;-59
2021/11/23 06:46:41;;;;;;;25.73;14.23;;;-0.20;99.90;;;;;;5008499;28;20101;-56
2021/11/23 06:49:07;;;;;;;24.50;13.20;;;-0.20;99.90;;;;;;5000664;28;20038;-58
2021/11/23 06:51:33;;;;;;;25.65;13.32;;;-0.20;99.90;;;;;;4992167;28;20491;-57
2021/11/23 06:53:58;;;;;;;21.63;12.07;;;-0.10;99.90;;;;;;5001340;28;20038;-58
2021/11/23 06:56:24;;;;;;;19.80;11.63;;;-0.10;99.90;;;;;;5016329;28;20030;-59
2021/11/23 06:58:50;;;;;;;24.65;12.88;;;-0.10;99.90;;;;;;5018171;28;20029;-57
2021/11/23 07:01:16;;;;;;;22.10;12.25;;;-0.10;99.90;;;;;;5003988;28;20041;-57
2021/11/23 07:03:41;;;;;;;37.00;17.20;;;-0.10;99.90;;;;;;5001191;28;20030;-58
2021/11/23 07:06:07;;;;;;;30.75;17.45;;;-0.10;99.90;;;;;;5004441;28;20061;-57
2021/11/23 07:08:33;;;;;;;44.63;23.05;;;0.00;99.90;;;;;;5007141;28;20811;-53
2021/11/23 07:10:58;;;;;;;32.05;15.93;;;0.00;99.90;;;;;;5009577;28;20161;-59
2021/11/23 07:13:24;;;;;;;28.10;13.82;;;0.00;99.90;;;;;;5009972;28;20058;-58
2021/11/23 07:15:52;;;;;;;27.63;14.45;;;0.00;99.90;;;;;;5015271;28;20037;-55
2021/11/23 07:18:18;;;;;;;26.10;16.50;;;0.10;99.90;;;;;;5011716;28;20137;-58
2021/11/23 07:20:45;;;;;;;27.23;15.48;;;0.10;99.90;;;;;;5010478;28;20484;-60
2021/11/23 07:23:11;;;;;;;27.50;14.82;;;0.20;99.90;;;;;;5005042;28;20108;-58
2021/11/23 07:25:37;;;;;;;26.92;13.85;;;0.20;99.90;;;;;;5008988;28;20172;-56
2021/11/23 07:28:04;;;;;;;28.92;14.40;;;0.30;99.90;;;;;;5008415;28;20044;-56
2021/11/23 07:30:29;;;;;;;26.92;14.25;;;0.40;99.90;;;;;;4998135;28;20034;-51
2021/11/23 07:32:55;;;;;;;22.70;13.98;;;0.40;99.90;;;;;;5001492;28;20037;-58
2021/11/23 07:35:21;;;;;;;22.67;13.13;;;0.50;99.90;;;;;;5003789;28;20066;-57
2021/11/23 07:37:47;;;;;;;25.42;13.90;;;0.50;99.90;;;;;;5000546;28;20117;-58
2021/11/23 07:40:13;;;;;;;24.73;13.32;;;0.50;99.90;;;;;;5001591;28;20038;-57
2021/11/23 07:42:39;;;;;;;27.67;15.43;;;0.60;99.90;;;;;;5003721;28;20049;-59
2021/11/23 07:45:06;;;;;;;27.95;15.02;;;0.60;99.90;;;;;;4998493;28;20395;-59
2021/11/23 07:47:32;;;;;;;23.77;13.18;;;0.60;99.90;;;;;;5002582;28;20062;-57
2021/11/23 07:49:57;;;;;;;24.33;13.93;;;0.70;99.90;;;;;;5008674;28;20120;-58
2021/11/23 07:52:23;;;;;;;23.33;12.88;;;0.70;99.90;;;;;;5007842;28;20045;-59
2021/11/23 07:54:49;;;;;;;31.98;15.82;;;0.70;99.90;;;;;;5003876;28;20065;-57
2021/11/23 07:57:14;;;;;;;35.78;17.95;;;0.80;99.90;;;;;;5001237;28;20407;-56
2021/11/23 07:59:40;;;;;;;24.63;14.77;;;0.80;99.90;;;;;;5005770;28;20034;-58
2021/11/23 08:02:06;;;;;;;26.95;15.25;;;0.90;99.90;;;;;;4982101;28;20042;-59
2021/11/23 08:04:31;;;;;;;24.88;12.80;;;0.90;99.90;;;;;;5009096;28;20395;-56
2021/11/23 08:06:57;;;;;;;24.83;14.15;;;0.90;99.90;;;;;;5005868;28;20046;-56
2021/11/23 08:09:23;;;;;;;30.23;13.35;;;0.90;99.90;;;;;;5012154;28;20767;-56
2021/11/23 08:11:48;;;;;;;31.38;15.15;;;0.90;99.90;;;;;;5008287;28;20407;-58
2021/11/23 08:14:14;;;;;;;30.05;17.17;;;1.00;99.90;;;;;;5003787;28;20056;-59
2021/11/23 08:16:40;;;;;;;29.55;15.85;;;1.10;99.90;;;;;;5012006;28;20067;-57
2021/11/23 08:19:05;;;;;;;35.20;17.85;;;1.20;99.90;;;;;;5009580;28;20036;-57
2021/11/23 08:21:31;;;;;;;43.78;20.20;;;1.30;99.90;;;;;;5004071;28;20108;-58
2021/11/23 08:23:57;;;;;;;34.88;17.25;;;1.30;99.90;;;;;;5015442;28;20207;-56
2021/11/23 08:26:24;;;;;;;34.33;17.75;;;1.30;99.90;;;;;;5008014;28;20721;-58
2021/11/23 08:28:50;;;;;;;27.58;13.95;;;1.40;99.90;;;;;;5000091;28;20093;-58
2021/11/23 08:31:15;;;;;;;24.55;14.30;;;1.60;99.90;;;;;;5006014;28;20033;-58
2021/11/23 08:33:41;;;;;;;27.10;15.85;;;1.70;99.90;;;;;;5002713;28;20471;-57
2021/11/23 08:36:08;;;;;;;23.88;14.25;;;1.70;99.90;;;;;;5003840;28;20113;-57
2021/11/23 08:38:34;;;;;;;29.25;14.23;;;1.70;99.90;;;;;;5000184;28;20027;-58
2021/11/23 08:41:00;;;;;;;28.35;14.35;;;1.80;99.90;;;;;;5002689;28;20091;-57
2021/11/23 08:43:25;;;;;;;25.20;14.48;;;1.70;99.90;;;;;;5005648;28;20034;-57
2021/11/23 08:45:51;;;;;;;23.98;13.23;;;1.70;99.90;;;;;;5008045;28;20041;-56
2021/11/23 08:48:17;;;;;;;23.40;13.13;;;1.70;99.90;;;;;;5009925;28;20049;-56
2021/11/23 08:50:43;;;;;;;22.38;13.50;;;1.80;99.90;;;;;;5005786;28;20470;-56
2021/11/23 08:53:09;;;;;;;24.48;14.63;;;1.90;99.90;;;;;;5005424;28;20793;-57
2021/11/23 08:55:38;;;;;;;34.13;16.77;;;2.10;99.90;;;;;;5001506;28;20041;-57
2021/11/23 08:58:05;;;;;;;28.10;15.80;;;2.20;99.90;;;;;;5001629;28;20883;-59
2021/11/23 09:00:32;;;;;;;34.92;18.10;;;2.30;99.90;;;;;;4988454;28;20078;-57
2021/11/23 09:02:58;;;;;;;28.60;16.85;;;2.40;99.90;;;;;;5000373;28;20610;-57
2021/11/23 09:05:27;;;;;;;24.15;14.52;;;2.50;99.90;;;;;;5013152;28;20041;-57
2021/11/23 09:07:53;;;;;;;24.17;15.15;;;2.60;99.90;;;;;;4999027;28;20065;-58
2021/11/23 09:10:23;;;;;;;27.15;15.75;;;2.60;99.90;;;;;;4999367;28;20030;-57
2021/11/23 09:12:51;;;;;;;27.63;14.95;;;2.50;99.90;;;;;;5010261;28;20054;-59
2021/11/23 09:15:17;;;;;;;24.88;14.18;;;2.60;99.90;;;;;;5001852;28;20037;-60
2021/11/23 09:17:43;;;;;;;29.45;15.00;;;2.70;99.90;;;;;;5004332;28;20030;-57
2021/11/23 09:20:11;;;;;;;23.20;13.52;;;2.80;99.90;;;;;;5005587;28;20849;-57
2021/11/23 09:22:37;;;;;;;23.30;14.55;;;2.80;99.90;;;;;;5002769;28;20105;-54
2021/11/23 09:25:08;;;;;;;25.05;15.27;;;2.80;99.90;;;;;;5006367;28;20076;-57
2021/11/23 09:27:33;;;;;;;25.05;14.68;;;2.80;99.90;;;;;;5002102;28;20116;-58
2021/11/23 09:29:59;;;;;;;22.25;13.50;;;2.80;99.90;;;;;;4999768;28;20046;-58
2021/11/23 09:32:26;;;;;;;25.75;14.35;;;2.80;99.90;;;;;;5013667;28;20105;-56
2021/11/23 09:34:52;;;;;;;21.38;13.27;;;2.70;99.90;;;;;;5011860;28;20025;-55
2021/11/23 09:37:17;;;;;;;24.38;14.52;;;2.70;99.90;;;;;;5018471;28;20648;-56
2021/11/23 09:39:43;;;;;;;28.35;15.38;;;2.70;99.90;;;;;;5004208;28;20109;-57
2021/11/23 09:42:08;;;;;;;25.65;14.77;;;2.70;99.90;;;;;;5008597;28;20506;-57
2021/11/23 09:44:35;;;;;;;28.13;15.10;;;2.80;99.90;;;;;;5011330;28;20101;-58
2021/11/23 09:47:02;;;;;;;28.90;15.70;;;2.90;99.90;;;;;;5008875;28;20021;-59
2021/11/23 09:49:28;;;;;;;26.55;14.95;;;2.90;99.90;;;;;;5007513;28;20177;-56
2021/11/23 09:51:53;;;;;;;26.48;15.80;;;3.00;99.90;;;;;;5008121;28;20120;-58
2021/11/23 09:54:19;;;;;;;26.75;15.20;;;3.10;99.90;;;;;;4999942;28;20037;-58
2021/11/23 09:56:46;;;;;;;24.27;14.23;;;3.20;99.90;;;;;;5000927;28;20025;-57
2021/11/23 09:59:13;;;;;;;35.50;17.73;;;3.10;99.90;;;;;;5009903;28;20032;-56
2021/11/23 10:01:48;;;;;;;23.27;15.50;;;3.20;99.90;;;;;;4994755;28;20047;-58
2021/11/23 10:04:14;;;;;;;21.60;14.20;;;3.30;99.90;;;;;;5005966;28;20133;-59
2021/11/23 10:07:02;;;;;;;27.20;15.20;;;3.20;99.90;;;;;;5010007;28;20056;-58
2021/11/23 10:09:42;;;;;;;25.23;15.25;;;3.20;99.90;;;;;;5012836;28;20088;-58
2021/11/23 10:12:24;;;;;;;24.83;15.30;;;3.00;99.90;;;;;;5019732;28;20029;-57
2021/11/23 10:15:16;;;;;;;25.30;14.10;;;3.10;99.90;;;;;;4997950;28;20022;-56
2021/11/23 10:17:45;;;;;;;24.83;13.85;;;3.20;99.90;;;;;;5000977;28;20479;-56
2021/11/23 10:20:32;;;;;;;27.20;14.15;;;3.20;99.90;;;;;;4998621;28;20045;-55
2021/11/23 10:23:14;;;;;;;21.60;13.48;;;3.20;99.90;;;;;;4997006;28;20427;-55
2021/11/23 10:25:40;;;;;;;28.08;14.32;;;3.30;99.90;;;;;;4994910;28;20038;-57
2021/11/23 10:28:07;;;;;;;23.70;13.88;;;3.40;99.90;;;;;;4992448;28;20072;-58
2021/11/23 10:30:33;;;;;;;27.80;15.80;;;3.40;99.90;;;;;;4998153;28;20064;-56
2021/11/23 10:32:58;;;;;;;23.33;15.35;;;3.50;99.90;;;;;;5005194;28;20037;-58
2021/11/23 10:35:26;;;;;;;28.27;16.38;;;3.60;99.90;;;;;;5000233;28;20113;-58
2021/11/23 10:37:53;;;;;;;23.70;14.60;;;3.70;99.90;;;;;;4999896;28;20034;-58
2021/11/23 10:40:23;;;;;;;26.13;15.50;;;3.70;99.90;;;;;;4996023;28;20065;-58
2021/11/23 10:42:51;;;;;;;27.73;16.90;;;3.70;99.90;;;;;;5001367;28;20029;-57
2021/11/23 10:45:17;;;;;;;35.25;18.55;;;3.70;99.90;;;;;;5001323;28;20042;-58
2021/11/23 10:47:46;;;;;;;28.92;16.75;;;3.80;99.90;;;;;;4999038;28;20037;-57
2021/11/23 10:50:14;;;;;;;27.35;15.82;;;4.00;99.90;;;;;;5000320;28;20041;-54
2021/11/23 10:52:45;;;;;;;30.92;17.52;;;4.10;99.90;;;;;;5018124;28;20057;-57
2021/11/23 10:55:23;;;;;;;30.30;16.85;;;4.30;99.90;;;;;;5015126;28;20109;-57
2021/11/23 10:57:49;;;;;;;32.03;14.93;;;4.50;99.90;;;;;;5002341;28;20045;-57
2021/11/23 11:00:15;;;;;;;23.65;15.05;;;4.60;99.90;;;;;;5007579;28;20425;-58
2021/11/23 11:02:43;;;;;;;30.88;15.38;;;4.70;99.90;;;;;;4989515;28;20046;-56
2021/11/23 11:05:14;;;;;;;25.30;16.38;;;4.80;99.90;;;;;;5001786;28;20061;-59
2021/11/23 11:07:41;;;;;;;25.02;16.52;;;4.80;99.90;;;;;;5002454;28;20053;-58
2021/11/23 11:10:08;;;;;;;26.65;15.80;;;4.90;99.90;;;;;;5006034;28;20443;-58
2021/11/23 11:12:35;;;;;;;27.63;16.73;;;4.90;99.90;;;;;;5002996;28;20042;-60
2021/11/23 11:15:03;;;;;;;27.52;16.08;;;4.80;99.90;;;;;;5001069;28;20041;-58
2021/11/23 11:17:29;;;;;;;30.08;17.60;;;4.60;99.90;;;;;;5003818;28;20067;-58
2021/11/23 11:19:55;;;;;;;30.38;16.48;;;4.60;99.90;;;;;;5002149;28;20038;-58
2021/11/23 11:22:25;;;;;;;25.83;15.95;;;4.70;99.90;;;;;;5003870;28;20027;-55
2021/11/23 11:25:01;;;;;;;28.73;17.40;;;4.80;99.90;;;;;;5007947;28;20437;-57
2021/11/23 11:27:34;;;;;;;31.90;18.17;;;4.80;99.90;;;;;;5010236;28;20038;-53
2021/11/23 11:30:31;;;;;;;26.45;17.20;;;4.80;99.90;;;;;;5018440;28;20576;-55
2021/11/23 11:33:08;;;;;;;29.52;16.88;;;4.90;99.90;;;;;;5011570;28;20037;-58
2021/11/23 11:35:46;;;;;;;26.98;17.55;;;4.90;99.90;;;;;;5021767;28;20558;-52
2021/11/23 11:38:30;;;;;;;29.60;20.10;;;4.90;99.90;;;;;;5011147;28;20030;-56
2021/11/23 11:41:04;;;;;;;33.05;18.42;;;5.00;99.90;;;;;;5009945;28;20030;-56
2021/11/23 11:43:41;;;;;;;28.50;17.77;;;5.10;99.90;;;;;;5003104;28;20030;-57
2021/11/23 11:46:10;;;;;;;29.30;18.45;;;5.10;99.90;;;;;;5006068;28;20029;-56
2021/11/23 11:48:37;;;;;;;31.38;18.33;;;5.20;99.90;;;;;;5013357;28;20030;-57
2021/11/23 11:51:16;;;;;;;29.10;16.98;;;5.50;99.90;;;;;;5017394;28;20034;-56
2021/11/23 11:53:47;;;;;;;34.20;19.23;;;5.60;99.90;;;;;;5005723;28;20045;-57
2021/11/23 11:56:25;;;;;;;37.58;21.10;;;5.50;99.90;;;;;;5003550;28;20038;-58
2021/11/23 11:58:52;;;;;;;32.72;18.67;;;5.50;99.90;;;;;;5002199;28;20396;-59
2021/11/23 12:01:27;;;;;;;29.33;17.55;;;5.50;99.90;;;;;;4985963;28;20065;-60
2021/11/23 12:04:10;;;;;;;35.70;18.73;;;5.50;99.90;;;;;;5002864;28;20073;-57
2021/11/23 12:06:53;;;;;;;37.13;18.27;;;5.50;99.90;;;;;;5014456;28;20172;-59
2021/11/23 12:09:35;;;;;;;35.08;21.33;;;5.60;99.90;;;;;;5009665;28;20428;-50
2021/11/23 12:12:10;;;;;;;32.30;19.27;;;5.70;99.90;;;;;;5012720;28;20030;-59
2021/11/23 12:14:49;;;;;;;29.65;18.05;;;5.90;99.90;;;;;;5003786;28;20530;-58
2021/11/23 12:17:26;;;;;;;29.15;17.77;;;6.10;99.90;;;;;;5007599;28;20109;-56
2021/11/23 12:20:10;;;;;;;29.35;19.20;;;6.00;99.90;;;;;;5007618;28;20030;-53
2021/11/23 12:22:39;;;;;;;30.98;18.55;;;5.80;99.90;;;;;;5023831;28;20076;-58
2021/11/23 12:25:07;;;;;;;33.33;18.92;;;5.60;99.90;;;;;;5013425;28;20088;-57
2021/11/23 12:27:34;;;;;;;36.67;20.83;;;5.50;99.90;;;;;;5025022;28;20022;-57
2021/11/23 12:30:00;;;;;;;33.97;20.55;;;5.40;99.90;;;;;;5007519;28;20033;-58
2021/11/23 12:32:30;;;;;;;38.55;20.77;;;5.30;99.90;;;;;;4999560;28;20104;-59